sensor_id;sensor_type;location;lat;lon;timestamp;pressure;altitude;pressure_sealevel;temperature;humidity
66801;BME280;53703;50.326;19.122;2023-05-25T00:00:25;99208.48;;;19.86;50.16
66801;BME280;53703;50.326;19.122;2023-05-25T00:03:33;99212.88;;;19.83;50.03
66801;BME280;53703;50.326;19.122;2023-05-25T00:06:28;99211.58;;;19.89;50.09
66801;BME280;53703;50.326;19.122;2023-05-25T00:09:23;99211.77;;;19.78;50.02
66801;BME280;53703;50.326;19.122;2023-05-25T00:12:17;99211.30;;;19.76;50.17
66801;BME280;53703;50.326;19.122;2023-05-25T00:15:13;99213.04;;;19.64;50.19
66801;BME280;53703;50.326;19.122;2023-05-25T00:18:07;99211.59;;;19.54;50.06
66801;BME280;53703;50.326;19.122;2023-05-25T00:21:01;99213.34;;;19.67;50.01
66801;BME280;53703;50.326;19.122;2023-05-25T00:23:58;99218.95;;;19.64;49.98
66801;BME280;53703;50.326;19.122;2023-05-25T00:26:52;99216.38;;;19.71;49.93
66801;BME280;53703;50.326;19.122;2023-05-25T00:29:47;99214.03;;;19.64;49.83
66801;BME280;53703;50.326;19.122;2023-05-25T00:32:41;99213.11;;;19.60;50.07
66801;BME280;53703;50.326;19.122;2023-05-25T00:35:35;99207.80;;;19.72;49.57
66801;BME280;53703;50.326;19.122;2023-05-25T00:38:29;99210.34;;;19.73;49.49
66801;BME280;53703;50.326;19.122;2023-05-25T00:41:24;99212.52;;;19.87;49.27
66801;BME280;53703;50.326;19.122;2023-05-25T00:44:19;99212.66;;;19.73;49.48
66801;BME280;53703;50.326;19.122;2023-05-25T00:47:13;99210.40;;;19.64;49.60
66801;BME280;53703;50.326;19.122;2023-05-25T00:50:15;99209.05;;;19.74;49.22
66801;BME280;53703;50.326;19.122;2023-05-25T00:53:10;99211.99;;;19.77;49.22
66801;BME280;53703;50.326;19.122;2023-05-25T00:56:12;99212.17;;;19.78;49.24
66801;BME280;53703;50.326;19.122;2023-05-25T00:59:11;99210.84;;;19.78;49.19
66801;BME280;53703;50.326;19.122;2023-05-25T01:02:10;99210.25;;;19.80;49.09
66801;BME280;53703;50.326;19.122;2023-05-25T01:05:11;99207.64;;;19.85;48.93
66801;BME280;53703;50.326;19.122;2023-05-25T01:08:07;99211.14;;;19.88;48.98
66801;BME280;53703;50.326;19.122;2023-05-25T01:11:03;99213.80;;;19.77;49.12
66801;BME280;53703;50.326;19.122;2023-05-25T01:13:59;99213.84;;;19.81;49.13
66801;BME280;53703;50.326;19.122;2023-05-25T01:16:54;99209.70;;;19.83;49.25
66801;BME280;53703;50.326;19.122;2023-05-25T01:19:44;99215.55;;;19.83;49.13
66801;BME280;53703;50.326;19.122;2023-05-25T01:22:56;99217.19;;;20.07;48.65
66801;BME280;53703;50.326;19.122;2023-05-25T01:25:52;99221.27;;;20.05;48.70
66801;BME280;53703;50.326;19.122;2023-05-25T01:29:06;99226.04;;;19.94;48.83
66801;BME280;53703;50.326;19.122;2023-05-25T01:32:03;99223.39;;;19.83;49.11
66801;BME280;53703;50.326;19.122;2023-05-25T01:34:58;99222.19;;;19.82;49.24
66801;BME280;53703;50.326;19.122;2023-05-25T01:37:53;99221.45;;;19.65;49.42
66801;BME280;53703;50.326;19.122;2023-05-25T01:40:47;99226.09;;;19.67;49.49
66801;BME280;53703;50.326;19.122;2023-05-25T01:43:41;99227.77;;;19.68;49.23
66801;BME280;53703;50.326;19.122;2023-05-25T01:46:39;99224.70;;;19.74;49.43
66801;BME280;53703;50.326;19.122;2023-05-25T01:49:40;99218.41;;;19.80;49.30
66801;BME280;53703;50.326;19.122;2023-05-25T01:52:39;99220.64;;;19.96;48.81
66801;BME280;53703;50.326;19.122;2023-05-25T01:55:38;99216.85;;;19.84;49.03
66801;BME280;53703;50.326;19.122;2023-05-25T01:58:41;99213.42;;;19.87;48.94
66801;BME280;53703;50.326;19.122;2023-05-25T02:01:36;99215.98;;;19.76;48.96
66801;BME280;53703;50.326;19.122;2023-05-25T02:04:30;99214.87;;;19.83;48.89
66801;BME280;53703;50.326;19.122;2023-05-25T02:07:24;99216.05;;;19.85;48.97
66801;BME280;53703;50.326;19.122;2023-05-25T02:10:18;99209.40;;;19.81;48.94
66801;BME280;53703;50.326;19.122;2023-05-25T02:13:12;99203.91;;;19.72;49.02
66801;BME280;53703;50.326;19.122;2023-05-25T02:16:07;99201.33;;;19.78;48.70
66801;BME280;53703;50.326;19.122;2023-05-25T02:19:01;99200.29;;;19.85;48.89
66801;BME280;53703;50.326;19.122;2023-05-25T02:21:55;99199.41;;;19.75;49.10
66801;BME280;53703;50.326;19.122;2023-05-25T02:24:49;99203.24;;;19.78;48.97
66801;BME280;53703;50.326;19.122;2023-05-25T02:27:43;99203.92;;;19.75;49.14
66801;BME280;53703;50.326;19.122;2023-05-25T02:30:38;99204.40;;;19.80;48.81
66801;BME280;53703;50.326;19.122;2023-05-25T02:33:32;99207.88;;;19.82;48.84
66801;BME280;53703;50.326;19.122;2023-05-25T02:36:25;99206.34;;;19.81;48.85
66801;BME280;53703;50.326;19.122;2023-05-25T02:39:19;99212.33;;;19.86;48.70
66801;BME280;53703;50.326;19.122;2023-05-25T02:42:14;99212.08;;;19.98;48.66
66801;BME280;53703;50.326;19.122;2023-05-25T02:45:10;99215.40;;;19.85;48.71
66801;BME280;53703;50.326;19.122;2023-05-25T02:48:04;99210.45;;;20.02;48.37
66801;BME280;53703;50.326;19.122;2023-05-25T02:50:58;99210.09;;;19.92;48.51
66801;BME280;53703;50.326;19.122;2023-05-25T02:53:54;99210.06;;;19.76;48.80
66801;BME280;53703;50.326;19.122;2023-05-25T02:56:48;99209.73;;;19.65;49.13
66801;BME280;53703;50.326;19.122;2023-05-25T02:59:42;99206.11;;;19.74;48.88
66801;BME280;53703;50.326;19.122;2023-05-25T03:02:36;99204.98;;;19.94;48.42
66801;BME280;53703;50.326;19.122;2023-05-25T03:05:30;99204.57;;;19.73;49.01
66801;BME280;53703;50.326;19.122;2023-05-25T03:08:27;99206.89;;;19.68;49.00
66801;BME280;53703;50.326;19.122;2023-05-25T03:11:20;99208.41;;;19.71;48.88
66801;BME280;53703;50.326;19.122;2023-05-25T03:14:15;99206.64;;;19.71;48.85
66801;BME280;53703;50.326;19.122;2023-05-25T03:17:09;99205.96;;;19.74;49.00
66801;BME280;53703;50.326;19.122;2023-05-25T03:20:03;99200.51;;;19.74;48.81
66801;BME280;53703;50.326;19.122;2023-05-25T03:22:58;99202.85;;;19.83;48.64
66801;BME280;53703;50.326;19.122;2023-05-25T03:25:52;99206.67;;;19.66;48.90
66801;BME280;53703;50.326;19.122;2023-05-25T03:28:46;99208.57;;;19.66;48.86
66801;BME280;53703;50.326;19.122;2023-05-25T03:31:40;99208.36;;;19.90;48.47
66801;BME280;53703;50.326;19.122;2023-05-25T03:34:34;99209.36;;;19.61;48.93
66801;BME280;53703;50.326;19.122;2023-05-25T03:37:29;99208.39;;;19.63;48.84
66801;BME280;53703;50.326;19.122;2023-05-25T03:40:23;99212.33;;;19.62;49.01
66801;BME280;53703;50.326;19.122;2023-05-25T03:43:17;99211.94;;;19.70;48.87
66801;BME280;53703;50.326;19.122;2023-05-25T03:46:11;99211.31;;;19.68;48.77
66801;BME280;53703;50.326;19.122;2023-05-25T03:49:05;99217.54;;;19.75;48.56
66801;BME280;53703;50.326;19.122;2023-05-25T03:52:00;99214.64;;;19.68;48.79
66801;BME280;53703;50.326;19.122;2023-05-25T03:54:54;99216.83;;;19.67;48.71
66801;BME280;53703;50.326;19.122;2023-05-25T03:57:49;99220.09;;;19.65;48.77
66801;BME280;53703;50.326;19.122;2023-05-25T04:00:43;99222.90;;;19.64;48.66
66801;BME280;53703;50.326;19.122;2023-05-25T04:03:37;99226.11;;;19.63;49.02
66801;BME280;53703;50.326;19.122;2023-05-25T04:06:31;99227.52;;;19.70;48.73
66801;BME280;53703;50.326;19.122;2023-05-25T04:09:28;99234.38;;;19.66;48.80
66801;BME280;53703;50.326;19.122;2023-05-25T04:12:22;99230.63;;;19.68;48.68
66801;BME280;53703;50.326;19.122;2023-05-25T04:15:17;99232.64;;;19.82;48.35
66801;BME280;53703;50.326;19.122;2023-05-25T04:18:10;99235.61;;;19.76;48.64
66801;BME280;53703;50.326;19.122;2023-05-25T04:21:05;99233.77;;;19.88;48.56
66801;BME280;53703;50.326;19.122;2023-05-25T04:23:59;99234.18;;;19.86;48.75
66801;BME280;53703;50.326;19.122;2023-05-25T04:26:53;99240.27;;;19.86;48.73
66801;BME280;53703;50.326;19.122;2023-05-25T04:29:48;99245.51;;;19.94;48.97
66801;BME280;53703;50.326;19.122;2023-05-25T04:32:42;99248.40;;;19.96;48.74
66801;BME280;53703;50.326;19.122;2023-05-25T04:35:38;99245.20;;;19.92;49.03
66801;BME280;53703;50.326;19.122;2023-05-25T04:38:32;99248.37;;;19.87;49.05
66801;BME280;53703;50.326;19.122;2023-05-25T04:41:26;99249.53;;;19.91;48.90
66801;BME280;53703;50.326;19.122;2023-05-25T04:44:21;99252.27;;;20.02;48.75
66801;BME280;53703;50.326;19.122;2023-05-25T04:47:17;99256.70;;;19.72;49.46
66801;BME280;53703;50.326;19.122;2023-05-25T04:50:13;99255.40;;;19.92;48.99
66801;BME280;53703;50.326;19.122;2023-05-25T04:53:06;99259.97;;;19.93;48.96
66801;BME280;53703;50.326;19.122;2023-05-25T04:56:01;99261.02;;;19.83;49.21
66801;BME280;53703;50.326;19.122;2023-05-25T04:58:55;99264.06;;;19.85;49.24
66801;BME280;53703;50.326;19.122;2023-05-25T05:01:49;99267.21;;;19.87;49.28
66801;BME280;53703;50.326;19.122;2023-05-25T05:04:44;99267.56;;;19.85;49.47
66801;BME280;53703;50.326;19.122;2023-05-25T05:07:38;99266.91;;;19.78;49.39
66801;BME280;53703;50.326;19.122;2023-05-25T05:10:37;99268.89;;;19.72;49.69
66801;BME280;53703;50.326;19.122;2023-05-25T05:13:31;99268.15;;;19.69;49.81
66801;BME280;53703;50.326;19.122;2023-05-25T05:16:24;99269.59;;;19.80;49.59
66801;BME280;53703;50.326;19.122;2023-05-25T05:22:42;99274.29;;;19.68;49.82
66801;BME280;53703;50.326;19.122;2023-05-25T05:25:39;99280.09;;;19.66;49.87
66801;BME280;53703;50.326;19.122;2023-05-25T05:28:36;99281.29;;;19.72;49.76
66801;BME280;53703;50.326;19.122;2023-05-25T05:31:30;99285.54;;;19.74;49.60
66801;BME280;53703;50.326;19.122;2023-05-25T05:34:24;99284.36;;;19.72;49.76
66801;BME280;53703;50.326;19.122;2023-05-25T05:37:19;99285.45;;;19.71;49.73
66801;BME280;53703;50.326;19.122;2023-05-25T05:40:13;99287.39;;;19.82;49.67
66801;BME280;53703;50.326;19.122;2023-05-25T05:43:10;99289.42;;;19.91;49.45
66801;BME280;53703;50.326;19.122;2023-05-25T05:46:07;99287.64;;;19.90;49.27
66801;BME280;53703;50.326;19.122;2023-05-25T05:49:00;99295.96;;;19.95;49.45
66801;BME280;53703;50.326;19.122;2023-05-25T05:51:54;99295.80;;;20.00;49.71
66801;BME280;53703;50.326;19.122;2023-05-25T05:54:48;99300.92;;;20.19;49.20
66801;BME280;53703;50.326;19.122;2023-05-25T05:57:42;99305.52;;;20.07;49.73
66801;BME280;53703;50.326;19.122;2023-05-25T06:00:36;99305.08;;;19.42;51.30
66801;BME280;53703;50.326;19.122;2023-05-25T06:03:30;99304.36;;;19.83;50.60
66801;BME280;53703;50.326;19.122;2023-05-25T06:06:24;99305.51;;;20.16;50.01
66801;BME280;53703;50.326;19.122;2023-05-25T06:09:19;99307.80;;;20.35;49.61
66801;BME280;53703;50.326;19.122;2023-05-25T06:12:13;99310.53;;;20.20;49.74
66801;BME280;53703;50.326;19.122;2023-05-25T06:15:09;99315.17;;;20.35;49.72
66801;BME280;53703;50.326;19.122;2023-05-25T06:18:04;99315.77;;;20.13;50.24
66801;BME280;53703;50.326;19.122;2023-05-25T06:20:41;99318.55;;;20.01;51.11
66801;BME280;53703;50.326;19.122;2023-05-25T06:23:35;99324.68;;;20.15;51.49
66801;BME280;53703;50.326;19.122;2023-05-25T06:26:29;99329.30;;;20.20;50.88
66801;BME280;53703;50.326;19.122;2023-05-25T06:29:23;99333.58;;;20.10;51.08
66801;BME280;53703;50.326;19.122;2023-05-25T06:32:18;99331.72;;;19.97;50.88
66801;BME280;53703;50.326;19.122;2023-05-25T06:35:03;99333.14;;;19.95;50.60
66801;BME280;53703;50.326;19.122;2023-05-25T06:37:59;99334.14;;;19.88;50.76
66801;BME280;53703;50.326;19.122;2023-05-25T06:40:54;99330.60;;;19.94;50.34
66801;BME280;53703;50.326;19.122;2023-05-25T06:43:48;99329.27;;;19.90;50.34
66801;BME280;53703;50.326;19.122;2023-05-25T06:46:42;99329.30;;;20.03;50.06
66801;BME280;53703;50.326;19.122;2023-05-25T06:49:37;99334.00;;;19.97;50.05
66801;BME280;53703;50.326;19.122;2023-05-25T06:52:31;99339.85;;;19.87;50.43
66801;BME280;53703;50.326;19.122;2023-05-25T06:55:25;99340.27;;;19.92;50.27
66801;BME280;53703;50.326;19.122;2023-05-25T06:58:19;99343.14;;;19.85;50.38
66801;BME280;53703;50.326;19.122;2023-05-25T07:01:03;99338.21;;;19.83;50.15
66801;BME280;53703;50.326;19.122;2023-05-25T07:03:57;99340.38;;;19.69;50.09
66801;BME280;53703;50.326;19.122;2023-05-25T07:06:51;99336.34;;;19.78;50.19
66801;BME280;53703;50.326;19.122;2023-05-25T07:09:45;99340.61;;;19.78;50.16
66801;BME280;53703;50.326;19.122;2023-05-25T07:12:39;99343.66;;;19.72;50.24
66801;BME280;53703;50.326;19.122;2023-05-25T07:15:33;99345.76;;;19.78;50.18
66801;BME280;53703;50.326;19.122;2023-05-25T07:18:27;99351.24;;;19.75;50.01
66801;BME280;53703;50.326;19.122;2023-05-25T07:21:21;99354.02;;;19.75;50.06
66801;BME280;53703;50.326;19.122;2023-05-25T07:24:16;99353.20;;;19.72;50.12
66801;BME280;53703;50.326;19.122;2023-05-25T07:27:10;99360.00;;;19.71;50.14
66801;BME280;53703;50.326;19.122;2023-05-25T07:30:07;99361.90;;;19.67;50.02
66801;BME280;53703;50.326;19.122;2023-05-25T07:33:02;99363.51;;;19.65;50.32
66801;BME280;53703;50.326;19.122;2023-05-25T07:35:56;99361.65;;;19.62;50.32
66801;BME280;53703;50.326;19.122;2023-05-25T07:38:51;99365.02;;;19.58;50.32
66801;BME280;53703;50.326;19.122;2023-05-25T07:41:45;99364.44;;;19.61;49.95
66801;BME280;53703;50.326;19.122;2023-05-25T07:44:39;99366.70;;;19.51;50.16
66801;BME280;53703;50.326;19.122;2023-05-25T07:47:33;99369.16;;;19.55;50.21
66801;BME280;53703;50.326;19.122;2023-05-25T07:50:28;99369.14;;;19.54;50.11
66801;BME280;53703;50.326;19.122;2023-05-25T07:53:23;99370.45;;;19.65;49.90
66801;BME280;53703;50.326;19.122;2023-05-25T07:56:17;99371.80;;;19.60;49.95
66801;BME280;53703;50.326;19.122;2023-05-25T07:59:12;99370.70;;;19.60;50.06
66801;BME280;53703;50.326;19.122;2023-05-25T08:02:06;99368.81;;;19.60;49.92
66801;BME280;53703;50.326;19.122;2023-05-25T08:05:01;99370.05;;;19.59;49.65
66801;BME280;53703;50.326;19.122;2023-05-25T08:07:58;99372.97;;;19.52;50.08
66801;BME280;53703;50.326;19.122;2023-05-25T08:10:52;99372.66;;;19.46;50.04
66801;BME280;53703;50.326;19.122;2023-05-25T08:13:46;99376.00;;;19.49;49.94
66801;BME280;53703;50.326;19.122;2023-05-25T08:16:40;99369.45;;;19.47;49.93
66801;BME280;53703;50.326;19.122;2023-05-25T08:19:34;99364.87;;;19.35;49.87
66801;BME280;53703;50.326;19.122;2023-05-25T08:22:28;99363.17;;;19.41;49.89
66801;BME280;53703;50.326;19.122;2023-05-25T08:25:08;99365.05;;;19.50;49.79
66801;BME280;53703;50.326;19.122;2023-05-25T08:28:02;99362.38;;;19.55;49.84
66801;BME280;53703;50.326;19.122;2023-05-25T08:30:56;99365.91;;;19.63;49.40
66801;BME280;53703;50.326;19.122;2023-05-25T08:33:50;99367.67;;;19.53;49.69
66801;BME280;53703;50.326;19.122;2023-05-25T08:36:45;99369.31;;;19.54;49.87
66801;BME280;53703;50.326;19.122;2023-05-25T08:39:39;99366.98;;;19.56;49.82
66801;BME280;53703;50.326;19.122;2023-05-25T08:42:33;99368.66;;;19.53;49.94
66801;BME280;53703;50.326;19.122;2023-05-25T08:45:27;99367.87;;;19.51;49.90
66801;BME280;53703;50.326;19.122;2023-05-25T08:48:41;99368.37;;;19.50;49.92
66801;BME280;53703;50.326;19.122;2023-05-25T08:51:40;99366.63;;;19.38;50.78
66801;BME280;53703;50.326;19.122;2023-05-25T08:54:36;99379.53;;;19.50;50.19
66801;BME280;53703;50.326;19.122;2023-05-25T08:57:44;99376.24;;;19.53;50.00
66801;BME280;53703;50.326;19.122;2023-05-25T09:00:43;99376.79;;;19.69;49.73
66801;BME280;53703;50.326;19.122;2023-05-25T09:03:41;99374.84;;;19.54;49.76
66801;BME280;53703;50.326;19.122;2023-05-25T09:06:36;99368.54;;;19.52;50.19
66801;BME280;53703;50.326;19.122;2023-05-25T09:09:31;99366.44;;;19.56;50.13
66801;BME280;53703;50.326;19.122;2023-05-25T09:12:29;99371.45;;;19.54;50.37
66801;BME280;53703;50.326;19.122;2023-05-25T09:15:24;99374.66;;;19.49;50.27
66801;BME280;53703;50.326;19.122;2023-05-25T09:18:18;99369.65;;;19.55;50.30
66801;BME280;53703;50.326;19.122;2023-05-25T09:21:12;99370.27;;;19.55;50.25
66801;BME280;53703;50.326;19.122;2023-05-25T09:24:07;99381.52;;;19.53;50.40
66801;BME280;53703;50.326;19.122;2023-05-25T09:27:02;99383.23;;;19.52;50.28
66801;BME280;53703;50.326;19.122;2023-05-25T09:29:56;99383.83;;;19.51;50.30
66801;BME280;53703;50.326;19.122;2023-05-25T09:32:53;99380.85;;;19.52;50.12
66801;BME280;53703;50.326;19.122;2023-05-25T09:35:48;99381.25;;;19.52;50.24
66801;BME280;53703;50.326;19.122;2023-05-25T09:38:44;99374.39;;;19.52;50.31
66801;BME280;53703;50.326;19.122;2023-05-25T09:41:41;99380.87;;;19.50;50.37
66801;BME280;53703;50.326;19.122;2023-05-25T09:44:35;99373.88;;;19.49;50.29
66801;BME280;53703;50.326;19.122;2023-05-25T09:47:29;99373.45;;;19.53;50.18
66801;BME280;53703;50.326;19.122;2023-05-25T09:50:23;99375.86;;;19.56;50.17
66801;BME280;53703;50.326;19.122;2023-05-25T09:53:19;99381.33;;;19.50;50.28
66801;BME280;53703;50.326;19.122;2023-05-25T09:56:14;99376.16;;;19.51;50.23
66801;BME280;53703;50.326;19.122;2023-05-25T09:59:09;99372.91;;;19.55;50.21
66801;BME280;53703;50.326;19.122;2023-05-25T10:02:04;99375.06;;;19.54;50.40
66801;BME280;53703;50.326;19.122;2023-05-25T10:04:48;99374.30;;;19.52;50.15
66801;BME280;53703;50.326;19.122;2023-05-25T10:07:27;99369.09;;;19.61;50.08
66801;BME280;53703;50.326;19.122;2023-05-25T10:10:22;99373.84;;;19.59;50.05
66801;BME280;53703;50.326;19.122;2023-05-25T10:13:19;99376.65;;;19.60;50.06
66801;BME280;53703;50.326;19.122;2023-05-25T10:16:16;99376.55;;;19.65;49.95
66801;BME280;53703;50.326;19.122;2023-05-25T10:19:16;99379.16;;;19.70;50.30
66801;BME280;53703;50.326;19.122;2023-05-25T10:22:18;99378.09;;;19.63;50.38
66801;BME280;53703;50.326;19.122;2023-05-25T10:25:20;99381.75;;;19.69;50.09
66801;BME280;53703;50.326;19.122;2023-05-25T10:28:21;99384.73;;;19.68;50.00
66801;BME280;53703;50.326;19.122;2023-05-25T10:31:20;99381.66;;;19.68;50.73
66801;BME280;53703;50.326;19.122;2023-05-25T10:34:15;99384.92;;;19.78;50.25
66801;BME280;53703;50.326;19.122;2023-05-25T10:37:09;99384.39;;;19.82;50.71
66801;BME280;53703;50.326;19.122;2023-05-25T10:40:06;99381.11;;;19.87;50.85
66801;BME280;53703;50.326;19.122;2023-05-25T10:43:01;99384.28;;;19.78;51.41
66801;BME280;53703;50.326;19.122;2023-05-25T10:45:56;99380.05;;;19.91;50.82
66801;BME280;53703;50.326;19.122;2023-05-25T10:48:51;99384.42;;;19.76;51.48
66801;BME280;53703;50.326;19.122;2023-05-25T10:52:15;99380.17;;;19.72;51.65
66801;BME280;53703;50.326;19.122;2023-05-25T10:55:11;99378.41;;;19.76;51.52
66801;BME280;53703;50.326;19.122;2023-05-25T10:58:13;99377.70;;;19.85;51.05
66801;BME280;53703;50.326;19.122;2023-05-25T11:01:11;99376.77;;;19.71;51.50
66801;BME280;53703;50.326;19.122;2023-05-25T11:04:25;99373.09;;;19.73;51.12
66801;BME280;53703;50.326;19.122;2023-05-25T11:07:22;99373.14;;;19.76;51.11
66801;BME280;53703;50.326;19.122;2023-05-25T11:10:54;99372.23;;;19.72;51.24
66801;BME280;53703;50.326;19.122;2023-05-25T11:13:51;99373.54;;;19.62;51.25
66801;BME280;53703;50.326;19.122;2023-05-25T11:17:06;99376.20;;;19.66;50.76
66801;BME280;53703;50.326;19.122;2023-05-25T11:20:04;99373.59;;;19.80;50.79
66801;BME280;53703;50.326;19.122;2023-05-25T11:23:00;99370.20;;;19.83;50.77
66801;BME280;53703;50.326;19.122;2023-05-25T11:26:20;99363.88;;;19.88;50.41
66801;BME280;53703;50.326;19.122;2023-05-25T11:29:16;99360.70;;;19.88;50.53
66801;BME280;53703;50.326;19.122;2023-05-25T11:32:16;99356.42;;;19.90;50.42
66801;BME280;53703;50.326;19.122;2023-05-25T11:35:11;99358.58;;;19.88;50.68
66801;BME280;53703;50.326;19.122;2023-05-25T11:38:06;99355.83;;;19.89;50.52
66801;BME280;53703;50.326;19.122;2023-05-25T11:41:03;99354.73;;;19.91;50.57
66801;BME280;53703;50.326;19.122;2023-05-25T11:44:03;99359.33;;;19.99;50.35
66801;BME280;53703;50.326;19.122;2023-05-25T11:47:01;99358.25;;;20.09;50.34
66801;BME280;53703;50.326;19.122;2023-05-25T11:49:57;99358.17;;;20.02;50.53
66801;BME280;53703;50.326;19.122;2023-05-25T11:52:51;99356.88;;;20.16;50.21
66801;BME280;53703;50.326;19.122;2023-05-25T11:55:52;99352.60;;;20.29;49.93
66801;BME280;53703;50.326;19.122;2023-05-25T11:58:59;99350.52;;;20.21;50.12
66801;BME280;53703;50.326;19.122;2023-05-25T12:02:01;99346.92;;;20.12;50.24
66801;BME280;53703;50.326;19.122;2023-05-25T12:04:56;99348.70;;;20.18;50.17
66801;BME280;53703;50.326;19.122;2023-05-25T12:07:51;99350.67;;;20.35;50.16
66801;BME280;53703;50.326;19.122;2023-05-25T12:10:54;99342.27;;;20.04;50.22
66801;BME280;53703;50.326;19.122;2023-05-25T12:13:48;99338.99;;;19.97;50.76
66801;BME280;53703;50.326;19.122;2023-05-25T12:16:43;99334.98;;;19.86;50.73
66801;BME280;53703;50.326;19.122;2023-05-25T12:19:37;99332.64;;;20.26;50.22
66801;BME280;53703;50.326;19.122;2023-05-25T12:22:32;99332.27;;;20.11;50.87
66801;BME280;53703;50.326;19.122;2023-05-25T12:25:27;99331.52;;;20.08;50.90
66801;BME280;53703;50.326;19.122;2023-05-25T12:28:38;99332.66;;;20.17;50.56
66801;BME280;53703;50.326;19.122;2023-05-25T12:31:32;99329.06;;;19.95;51.11
66801;BME280;53703;50.326;19.122;2023-05-25T12:34:28;99324.33;;;20.03;50.70
66801;BME280;53703;50.326;19.122;2023-05-25T12:37:23;99328.30;;;20.29;50.16
66801;BME280;53703;50.326;19.122;2023-05-25T12:40:22;99324.77;;;20.22;50.73
66801;BME280;53703;50.326;19.122;2023-05-25T12:43:18;99319.12;;;20.03;51.22
66801;BME280;53703;50.326;19.122;2023-05-25T12:46:24;99319.80;;;20.26;50.74
66801;BME280;53703;50.326;19.122;2023-05-25T12:49:30;99324.20;;;20.12;51.19
66801;BME280;53703;50.326;19.122;2023-05-25T12:52:44;99324.63;;;20.26;50.49
66801;BME280;53703;50.326;19.122;2023-05-25T12:55:39;99325.70;;;20.51;50.12
66801;BME280;53703;50.326;19.122;2023-05-25T12:58:33;99326.15;;;20.53;49.99
66801;BME280;53703;50.326;19.122;2023-05-25T13:01:27;99323.10;;;20.48;50.26
66801;BME280;53703;50.326;19.122;2023-05-25T13:04:22;99321.79;;;20.63;49.76
66801;BME280;53703;50.326;19.122;2023-05-25T13:07:16;99326.26;;;20.62;49.97
66801;BME280;53703;50.326;19.122;2023-05-25T13:10:12;99324.30;;;20.54;50.20
66801;BME280;53703;50.326;19.122;2023-05-25T13:13:07;99321.28;;;20.57;50.18
66801;BME280;53703;50.326;19.122;2023-05-25T13:16:01;99318.84;;;20.69;49.98
66801;BME280;53703;50.326;19.122;2023-05-25T13:18:55;99321.38;;;20.55;50.28
66801;BME280;53703;50.326;19.122;2023-05-25T13:21:49;99319.59;;;20.64;50.13
66801;BME280;53703;50.326;19.122;2023-05-25T13:24:43;99315.45;;;20.69;50.00
66801;BME280;53703;50.326;19.122;2023-05-25T13:27:41;99315.25;;;20.65;50.21
66801;BME280;53703;50.326;19.122;2023-05-25T13:30:46;99315.59;;;20.66;50.18
66801;BME280;53703;50.326;19.122;2023-05-25T13:33:40;99311.82;;;20.69;50.04
66801;BME280;53703;50.326;19.122;2023-05-25T13:36:34;99315.33;;;20.65;50.17
66801;BME280;53703;50.326;19.122;2023-05-25T13:39:28;99312.23;;;20.70;50.10
66801;BME280;53703;50.326;19.122;2023-05-25T13:42:22;99311.49;;;20.58;50.39
66801;BME280;53703;50.326;19.122;2023-05-25T13:45:16;99307.21;;;20.61;50.37
66801;BME280;53703;50.326;19.122;2023-05-25T13:48:10;99307.08;;;20.64;50.24
66801;BME280;53703;50.326;19.122;2023-05-25T13:51:04;99306.39;;;20.74;49.96
66801;BME280;53703;50.326;19.122;2023-05-25T13:53:58;99308.63;;;20.55;50.54
66801;BME280;53703;50.326;19.122;2023-05-25T13:56:52;99308.63;;;20.47;50.86
66801;BME280;53703;50.326;19.122;2023-05-25T13:59:46;99309.78;;;20.62;50.83
66801;BME280;53703;50.326;19.122;2023-05-25T14:02:30;99305.58;;;20.70;50.59
66801;BME280;53703;50.326;19.122;2023-05-25T14:05:26;99308.21;;;20.54;50.91
66801;BME280;53703;50.326;19.122;2023-05-25T14:08:21;99308.30;;;20.60;50.77
66801;BME280;53703;50.326;19.122;2023-05-25T14:11:15;99305.68;;;20.90;50.39
66801;BME280;53703;50.326;19.122;2023-05-25T14:14:18;99309.89;;;20.87;53.01
66801;BME280;53703;50.326;19.122;2023-05-25T14:17:24;99301.96;;;20.71;54.83
66801;BME280;53703;50.326;19.122;2023-05-25T14:20:18;99295.44;;;20.70;56.25
66801;BME280;53703;50.326;19.122;2023-05-25T14:23:17;99298.91;;;20.76;56.00
66801;BME280;53703;50.326;19.122;2023-05-25T14:26:11;99294.06;;;21.00;55.28
66801;BME280;53703;50.326;19.122;2023-05-25T14:29:05;99291.48;;;20.87;55.75
66801;BME280;53703;50.326;19.122;2023-05-25T14:31:59;99293.95;;;20.90;55.65
66801;BME280;53703;50.326;19.122;2023-05-25T14:34:54;99293.28;;;20.84;55.71
66801;BME280;53703;50.326;19.122;2023-05-25T14:37:48;99293.04;;;20.89;54.81
66801;BME280;53703;50.326;19.122;2023-05-25T14:40:42;99288.52;;;20.75;54.49
66801;BME280;53703;50.326;19.122;2023-05-25T14:43:37;99294.60;;;20.83;53.85
66801;BME280;53703;50.326;19.122;2023-05-25T14:46:33;99294.27;;;20.98;53.12
66801;BME280;53703;50.326;19.122;2023-05-25T14:49:27;99291.31;;;20.95;53.40
66801;BME280;53703;50.326;19.122;2023-05-25T14:52:21;99293.20;;;21.00;53.08
66801;BME280;53703;50.326;19.122;2023-05-25T14:55:15;99290.96;;;20.94;52.82
66801;BME280;53703;50.326;19.122;2023-05-25T14:58:09;99284.14;;;20.80;52.75
66801;BME280;53703;50.326;19.122;2023-05-25T15:01:04;99281.26;;;20.89;52.51
66801;BME280;53703;50.326;19.122;2023-05-25T15:03:58;99281.55;;;20.89;52.33
66801;BME280;53703;50.326;19.122;2023-05-25T15:06:52;99283.36;;;20.86;52.14
66801;BME280;53703;50.326;19.122;2023-05-25T15:09:46;99283.59;;;20.90;51.87
66801;BME280;53703;50.326;19.122;2023-05-25T15:12:40;99286.46;;;20.94;51.65
66801;BME280;53703;50.326;19.122;2023-05-25T15:15:34;99285.63;;;20.95;51.58
66801;BME280;53703;50.326;19.122;2023-05-25T15:18:28;99282.03;;;20.91;51.61
66801;BME280;53703;50.326;19.122;2023-05-25T15:21:22;99281.96;;;20.94;51.56